Time;durP1;ratioP1;P1;durP2;ratioP2;P2;SDS_P1;SDS_P2;PMS_P1;PMS_P2;Temp;Humidity;BMP_temperature;BMP_pressure;BME280_temperature;BME280_humidity;BME280_pressure;Samples;Min_cycle;Max_cycle;Signal;HPM_P1;HPM_P2
2021/03/10 00:00:24;;;;;;;15.02;12.75;;;4.30;99.90;;;;;;5102550;28;20462;-67
2021/03/10 00:02:49;;;;;;;15.75;13.43;;;4.20;99.90;;;;;;5100202;28;20032;-67
2021/03/10 00:05:15;;;;;;;12.90;11.68;;;4.30;99.90;;;;;;5102283;28;20059;-67
2021/03/10 00:07:41;;;;;;;13.68;12.38;;;4.30;99.90;;;;;;5100219;28;20036;-67
2021/03/10 00:10:09;;;;;;;13.20;11.43;;;4.30;99.90;;;;;;5099352;28;20040;-67
2021/03/10 00:12:35;;;;;;;12.98;11.48;;;4.20;99.90;;;;;;5107812;28;20499;-67
2021/03/10 00:15:06;;;;;;;12.98;11.68;;;4.20;99.90;;;;;;5111138;28;20039;-67
2021/03/10 00:17:32;;;;;;;13.02;11.57;;;4.20;99.70;;;;;;5110110;28;20047;-67
2021/03/10 00:19:57;;;;;;;12.25;11.05;;;4.10;99.60;;;;;;5087246;28;20439;-67
2021/03/10 00:22:24;;;;;;;14.82;13.18;;;4.20;99.50;;;;;;5099463;28;20040;-67
2021/03/10 00:24:50;;;;;;;14.48;12.98;;;4.00;99.40;;;;;;5101825;28;20109;-67
2021/03/10 00:27:25;;;;;;;12.70;11.50;;;3.90;99.60;;;;;;5101225;28;20063;-67
2021/03/10 00:29:52;;;;;;;12.25;11.00;;;3.90;99.90;;;;;;5100816;28;20093;-67
2021/03/10 00:32:18;;;;;;;13.38;11.48;;;3.80;99.90;;;;;;5101736;28;21589;-67
2021/03/10 00:34:43;;;;;;;14.68;13.18;;;3.80;99.90;;;;;;5110357;28;20039;-67
2021/03/10 00:37:09;;;;;;;15.02;11.93;;;3.80;99.90;;;;;;5091426;28;20046;-67
2021/03/10 00:39:35;;;;;;;13.95;12.48;;;3.80;99.90;;;;;;5112252;28;20040;-67
2021/03/10 00:42:00;;;;;;;13.45;12.25;;;3.80;99.90;;;;;;5111551;28;20031;-67
2021/03/10 00:44:26;;;;;;;13.95;11.68;;;3.80;99.90;;;;;;5112167;28;20036;-67
2021/03/10 00:46:52;;;;;;;13.88;12.48;;;3.70;99.90;;;;;;5112428;28;20040;-67
2021/03/10 00:49:18;;;;;;;15.35;13.75;;;3.70;99.90;;;;;;5103815;28;20136;-67
2021/03/10 00:51:43;;;;;;;15.75;14.10;;;3.70;99.90;;;;;;5100351;28;20039;-67
2021/03/10 00:54:09;;;;;;;21.73;13.95;;;3.70;99.90;;;;;;5100616;28;20040;-67
2021/03/10 00:56:35;;;;;;;15.90;14.23;;;3.70;99.90;;;;;;5103114;28;20029;-67
2021/03/10 00:59:00;;;;;;;15.13;13.63;;;3.70;99.90;;;;;;5091589;28;20039;-67
2021/03/10 01:01:26;;;;;;;16.33;14.38;;;3.70;99.90;;;;;;5109247;28;20102;-67
2021/03/10 01:03:52;;;;;;;17.30;15.48;;;3.60;99.90;;;;;;5106842;28;20048;-67
2021/03/10 01:06:23;;;;;;;16.25;14.60;;;3.70;99.90;;;;;;5099254;28;20725;-67
2021/03/10 01:08:58;;;;;;;16.17;14.38;;;3.60;99.90;;;;;;5096268;28;20052;-67
2021/03/10 01:11:23;;;;;;;17.02;15.35;;;3.60;99.90;;;;;;5099217;28;20465;-67
2021/03/10 01:13:49;;;;;;;17.30;15.55;;;3.60;99.90;;;;;;5101439;28;20074;-67
2021/03/10 01:16:15;;;;;;;16.13;14.43;;;3.60;99.90;;;;;;5097444;28;20699;-67
2021/03/10 01:18:41;;;;;;;16.40;14.68;;;3.70;99.90;;;;;;5102833;28;20517;-67
2021/03/10 01:21:07;;;;;;;17.25;15.30;;;3.70;99.90;;;;;;5105650;28;20666;-67
2021/03/10 01:23:33;;;;;;;17.95;16.05;;;3.70;99.90;;;;;;5109818;28;20070;-67
2021/03/10 01:25:59;;;;;;;17.58;15.73;;;3.60;99.90;;;;;;5108545;28;20474;-67
2021/03/10 01:28:24;;;;;;;17.30;15.32;;;3.70;99.90;;;;;;5106710;28;20043;-67
2021/03/10 01:30:50;;;;;;;17.23;15.40;;;3.60;99.90;;;;;;5100480;28;20080;-67
2021/03/10 01:33:17;;;;;;;16.00;14.27;;;3.70;99.90;;;;;;5099133;28;20035;-67
2021/03/10 01:35:43;;;;;;;16.63;14.85;;;3.70;99.90;;;;;;5105938;28;20043;-67
2021/03/10 01:38:09;;;;;;;17.08;13.85;;;3.70;99.90;;;;;;5109351;28;20032;-67
2021/03/10 01:40:34;;;;;;;16.90;14.85;;;3.70;99.90;;;;;;5110365;28;20032;-67
2021/03/10 01:43:02;;;;;;;17.15;15.45;;;3.70;99.90;;;;;;5109594;28;20028;-67
2021/03/10 01:45:28;;;;;;;16.17;14.60;;;3.70;99.90;;;;;;5111308;28;20043;-67
2021/03/10 01:47:54;;;;;;;19.45;16.08;;;3.70;99.90;;;;;;5111122;28;20547;-67
2021/03/10 01:50:21;;;;;;;17.08;15.27;;;3.70;99.90;;;;;;5111265;28;20032;-67
2021/03/10 01:52:47;;;;;;;17.80;15.88;;;3.80;99.90;;;;;;5106102;28;20950;-67
2021/03/10 01:55:13;;;;;;;17.83;16.00;;;3.70;99.90;;;;;;5098617;28;20036;-67
2021/03/10 01:57:39;;;;;;;15.70;14.05;;;3.70;99.90;;;;;;5099751;28;20036;-67
2021/03/10 02:00:08;;;;;;;16.50;14.70;;;3.70;99.80;;;;;;5100368;28;20044;-67
2021/03/10 02:02:34;;;;;;;16.25;14.57;;;3.70;99.90;;;;;;5098900;28;20042;-67
2021/03/10 02:05:00;;;;;;;18.80;14.60;;;3.70;99.90;;;;;;5099394;28;20040;-67
2021/03/10 02:07:31;;;;;;;15.88;14.23;;;3.70;99.80;;;;;;5098839;28;20064;-67
2021/03/10 02:10:16;;;;;;;15.70;14.20;;;3.80;99.80;;;;;;5099462;28;20429;-67
2021/03/10 02:12:51;;;;;;;17.30;15.30;;;3.80;99.90;;;;;;5100422;28;20646;-67
2021/03/10 02:15:59;;;;;;;16.30;14.43;;;3.80;99.90;;;;;;5100143;28;20485;-67
2021/03/10 02:18:36;;;;;;;16.45;14.75;;;3.80;99.90;;;;;;5098022;28;20032;-67
2021/03/10 02:21:15;;;;;;;14.93;13.32;;;3.80;99.80;;;;;;5098845;28;20047;-67
2021/03/10 02:24:08;;;;;;;16.60;14.90;;;3.80;99.80;;;;;;5103150;28;20051;-67
2021/03/10 02:26:58;;;;;;;16.70;14.90;;;3.80;99.70;;;;;;5105122;28;20102;-67
2021/03/10 02:29:26;;;;;;;17.50;15.00;;;3.80;99.90;;;;;;5107570;28;20151;-67
2021/03/10 02:31:53;;;;;;;17.20;15.50;;;3.80;99.90;;;;;;5108805;28;20111;-67
2021/03/10 02:34:19;;;;;;;17.55;15.77;;;3.70;99.90;;;;;;5107779;28;20047;-67
2021/03/10 02:36:47;;;;;;;17.63;15.75;;;3.60;99.90;;;;;;5099857;28;20047;-67
2021/03/10 02:39:16;;;;;;;18.77;16.77;;;3.60;99.90;;;;;;5097252;28;20082;-67
2021/03/10 02:41:42;;;;;;;18.45;16.48;;;3.50;99.90;;;;;;5101788;28;20070;-67
2021/03/10 02:44:11;;;;;;;16.75;14.98;;;3.40;99.90;;;;;;5101997;28;20035;-67
2021/03/10 02:46:38;;;;;;;18.17;16.27;;;3.40;99.90;;;;;;5104065;28;20085;-67
2021/03/10 02:49:05;;;;;;;16.50;14.85;;;3.40;99.90;;;;;;5103497;28;20054;-67
2021/03/10 02:51:33;;;;;;;16.90;15.10;;;3.40;99.90;;;;;;5111525;28;20047;-67
2021/03/10 02:54:00;;;;;;;18.95;16.45;;;3.50;99.90;;;;;;5112094;28;20054;-67
2021/03/10 02:56:27;;;;;;;17.85;16.05;;;3.50;99.90;;;;;;5104454;28;20082;-67
2021/03/10 02:58:53;;;;;;;16.48;14.77;;;3.50;99.90;;;;;;5102262;28;20430;-67
2021/03/10 03:01:19;;;;;;;17.98;16.13;;;3.50;99.90;;;;;;5100957;28;20044;-67
2021/03/10 03:03:45;;;;;;;16.45;14.85;;;3.50;99.90;;;;;;5103247;28;20066;-67
2021/03/10 03:06:11;;;;;;;17.45;15.57;;;3.60;99.90;;;;;;5102113;28;20051;-67
2021/03/10 03:08:36;;;;;;;17.67;15.82;;;3.50;99.90;;;;;;5084222;28;20470;-67
2021/03/10 03:11:04;;;;;;;19.15;14.25;;;3.60;99.90;;;;;;5103907;28;20553;-67
2021/03/10 03:13:33;;;;;;;16.58;14.88;;;3.60;99.90;;;;;;5101405;28;20554;-67
2021/03/10 03:16:01;;;;;;;18.75;16.85;;;3.60;99.90;;;;;;5102210;28;20051;-67
2021/03/10 03:18:28;;;;;;;17.55;15.57;;;3.60;99.90;;;;;;5108692;28;20076;-67
2021/03/10 03:20:55;;;;;;;17.65;15.82;;;3.60;99.90;;;;;;5112027;28;20070;-67
2021/03/10 03:23:23;;;;;;;18.88;16.63;;;3.50;99.90;;;;;;5105378;28;20470;-67
2021/03/10 03:25:50;;;;;;;18.67;16.73;;;3.50;99.90;;;;;;5112150;28;20032;-67
2021/03/10 03:28:23;;;;;;;18.27;16.10;;;3.40;99.90;;;;;;5112682;28;20035;-67
2021/03/10 03:30:51;;;;;;;19.95;17.85;;;3.40;99.90;;;;;;5105762;28;20111;-67
2021/03/10 03:33:20;;;;;;;18.42;16.20;;;3.50;99.90;;;;;;5111833;28;20032;-67
2021/03/10 03:35:50;;;;;;;18.65;16.65;;;3.40;99.90;;;;;;5112630;28;20627;-67
2021/03/10 03:38:16;;;;;;;18.95;16.90;;;3.50;99.90;;;;;;5112080;28;20097;-67
2021/03/10 03:40:42;;;;;;;17.65;15.75;;;3.50;99.90;;;;;;5113179;28;20420;-67
2021/03/10 03:43:09;;;;;;;18.35;15.75;;;3.80;99.90;;;;;;5112166;28;20058;-67
2021/03/10 03:45:36;;;;;;;17.73;15.82;;;3.60;99.90;;;;;;5113238;28;20074;-67
2021/03/10 03:48:03;;;;;;;17.48;15.68;;;3.60;99.90;;;;;;5112536;28;20044;-67
2021/03/10 03:50:30;;;;;;;17.52;15.65;;;3.60;99.90;;;;;;5113191;28;20078;-67
2021/03/10 03:52:56;;;;;;;18.42;16.52;;;3.70;99.90;;;;;;5111051;28;20047;-67
2021/03/10 03:55:23;;;;;;;17.23;15.38;;;3.60;99.90;;;;;;5112445;28;20060;-67
2021/03/10 03:57:49;;;;;;;16.45;14.65;;;3.70;99.90;;;;;;5112971;28;20043;-67
2021/03/10 04:00:18;;;;;;;19.20;15.63;;;3.60;99.90;;;;;;5112919;28;20385;-67
2021/03/10 04:02:45;;;;;;;18.45;16.55;;;3.60;99.90;;;;;;5110367;28;20085;-67
2021/03/10 04:05:12;;;;;;;17.40;15.60;;;3.40;99.90;;;;;;5112716;28;20032;-67
2021/03/10 04:07:48;;;;;;;18.45;16.52;;;3.30;99.90;;;;;;5112437;28;20067;-67
2021/03/10 04:10:14;;;;;;;18.00;16.08;;;3.30;99.90;;;;;;5109209;28;20039;-67
2021/03/10 04:12:39;;;;;;;17.63;15.73;;;3.30;99.90;;;;;;5110825;28;20389;-67
2021/03/10 04:15:06;;;;;;;19.42;14.98;;;3.30;99.90;;;;;;5111899;28;20071;-67
2021/03/10 04:17:31;;;;;;;18.92;15.57;;;3.20;99.90;;;;;;5112959;28;20460;-67
2021/03/10 04:19:57;;;;;;;17.73;15.15;;;3.40;99.90;;;;;;5112555;28;20139;-67
2021/03/10 04:22:23;;;;;;;18.33;15.90;;;3.20;99.90;;;;;;5111787;28;20447;-67
2021/03/10 04:24:48;;;;;;;16.38;13.43;;;3.20;99.90;;;;;;5110321;28;20401;-67
2021/03/10 04:27:15;;;;;;;16.08;14.45;;;3.20;99.90;;;;;;5111364;28;20040;-67
2021/03/10 04:29:41;;;;;;;16.48;14.77;;;3.20;99.90;;;;;;5118966;27;20061;-67
2021/03/10 04:32:07;;;;;;;18.52;15.25;;;3.20;99.90;;;;;;5110083;28;20046;-67
2021/03/10 04:34:33;;;;;;;16.75;14.98;;;3.30;99.90;;;;;;5110937;28;20035;-67
2021/03/10 04:36:59;;;;;;;18.00;16.10;;;3.20;99.90;;;;;;5112047;28;20035;-67
2021/03/10 04:39:24;;;;;;;17.98;16.15;;;3.30;99.90;;;;;;5093219;28;20521;-67
2021/03/10 04:41:50;;;;;;;18.25;15.15;;;3.30;99.90;;;;;;5110901;28;20044;-67
2021/03/10 04:44:16;;;;;;;18.95;16.25;;;3.30;99.90;;;;;;5111672;28;20032;-67
2021/03/10 04:46:41;;;;;;;19.00;15.27;;;3.30;99.90;;;;;;5111743;28;20040;-67
2021/03/10 04:49:09;;;;;;;17.45;14.98;;;3.30;99.90;;;;;;5093192;28;20428;-67
2021/03/10 04:51:35;;;;;;;19.20;17.20;;;3.30;99.90;;;;;;5111530;28;20047;-67
2021/03/10 04:54:01;;;;;;;21.08;16.50;;;3.20;99.90;;;;;;5109586;28;20051;-67
2021/03/10 04:56:27;;;;;;;19.85;17.25;;;3.20;99.90;;;;;;5108931;28;20043;-67
2021/03/10 04:58:52;;;;;;;22.67;17.63;;;3.20;99.90;;;;;;5111704;28;20031;-67
2021/03/10 05:01:18;;;;;;;22.23;17.90;;;3.40;99.90;;;;;;5111417;28;20097;-67
2021/03/10 05:03:44;;;;;;;19.98;17.65;;;3.20;99.90;;;;;;5110815;28;20035;-67
2021/03/10 05:06:09;;;;;;;19.75;17.55;;;3.20;99.90;;;;;;5111458;28;20046;-66
2021/03/10 05:08:35;;;;;;;21.70;18.27;;;3.10;99.90;;;;;;5111634;28;20452;-67
2021/03/10 05:11:02;;;;;;;20.58;18.05;;;2.90;99.90;;;;;;5111467;28;20056;-67
2021/03/10 05:13:28;;;;;;;20.17;18.00;;;3.00;99.90;;;;;;5107056;28;20081;-67
2021/03/10 05:15:53;;;;;;;21.33;19.00;;;3.00;99.90;;;;;;5111629;28;20135;-67
2021/03/10 05:18:19;;;;;;;21.67;18.50;;;3.00;99.90;;;;;;5109618;28;20039;-67
2021/03/10 05:20:45;;;;;;;21.15;18.88;;;3.00;99.90;;;;;;5111036;28;20111;-67
2021/03/10 05:23:10;;;;;;;21.88;19.52;;;3.00;99.90;;;;;;5110079;28;20043;-67
2021/03/10 05:25:36;;;;;;;22.08;19.77;;;3.00;99.90;;;;;;5111724;28;20032;-67
2021/03/10 05:28:02;;;;;;;24.25;20.35;;;3.00;99.90;;;;;;5108204;28;20088;-67
2021/03/10 05:30:28;;;;;;;22.42;20.02;;;3.00;99.90;;;;;;5110508;28;20059;-67
2021/03/10 05:32:53;;;;;;;23.40;19.13;;;3.20;99.90;;;;;;5109393;28;20450;-67
2021/03/10 05:35:19;;;;;;;23.55;18.88;;;3.10;99.90;;;;;;5109933;28;20031;-67
2021/03/10 05:37:45;;;;;;;21.77;19.45;;;3.10;99.90;;;;;;5108232;28;20536;-67
2021/03/10 05:40:11;;;;;;;23.83;19.20;;;3.20;99.90;;;;;;5111224;28;20166;-67
2021/03/10 05:42:41;;;;;;;23.13;19.30;;;3.20;99.90;;;;;;5110230;28;20516;-67
2021/03/10 05:45:09;;;;;;;23.52;18.58;;;3.20;99.90;;;;;;5107867;28;20031;-67
2021/03/10 05:47:35;;;;;;;23.77;18.77;;;3.20;99.90;;;;;;5106306;27;20119;-67
2021/03/10 05:50:03;;;;;;;20.83;18.48;;;3.20;99.90;;;;;;5108877;28;20042;-67
2021/03/10 05:52:31;;;;;;;22.27;19.90;;;3.30;99.90;;;;;;5108584;28;20077;-67
2021/03/10 05:54:59;;;;;;;21.58;19.27;;;3.30;99.90;;;;;;5110437;28;20071;-66
2021/03/10 05:57:25;;;;;;;21.50;18.77;;;3.30;99.90;;;;;;5092094;28;20038;-67
2021/03/10 05:59:50;;;;;;;23.20;19.88;;;3.30;99.90;;;;;;5104393;28;20036;-67
2021/03/10 06:02:17;;;;;;;22.38;18.75;;;3.30;99.90;;;;;;5105968;28;20114;-67
2021/03/10 06:04:43;;;;;;;22.10;17.67;;;3.30;99.90;;;;;;5109147;28;20040;-67
2021/03/10 06:07:20;;;;;;;22.25;19.85;;;3.40;99.90;;;;;;5106047;28;20125;-66
2021/03/10 06:10:05;;;;;;;21.67;19.48;;;3.40;99.90;;;;;;5105122;28;20027;-67
2021/03/10 06:12:41;;;;;;;21.83;19.52;;;3.40;99.90;;;;;;5105166;28;20067;-67
2021/03/10 06:15:10;;;;;;;22.38;19.15;;;3.40;99.90;;;;;;5099386;28;20035;-67
2021/03/10 06:17:47;;;;;;;22.13;18.73;;;3.40;99.90;;;;;;5100688;28;20047;-67
2021/03/10 06:20:27;;;;;;;20.27;18.13;;;3.40;99.90;;;;;;5103096;28;20032;-67
2021/03/10 06:22:55;;;;;;;21.73;19.02;;;3.40;99.90;;;;;;5100329;28;20040;-67
2021/03/10 06:25:22;;;;;;;21.15;18.88;;;3.40;99.90;;;;;;5107798;28;20188;-67
2021/03/10 06:27:55;;;;;;;24.73;19.55;;;3.50;99.90;;;;;;5104968;28;20080;-67
2021/03/10 06:30:31;;;;;;;22.85;19.85;;;3.50;99.90;;;;;;5109016;28;20040;-67
2021/03/10 06:32:57;;;;;;;22.50;18.42;;;3.50;99.90;;;;;;5106736;28;20055;-67
2021/03/10 06:35:27;;;;;;;22.85;19.80;;;3.50;99.90;;;;;;5108479;28;20043;-67
2021/03/10 06:38:04;;;;;;;23.58;20.38;;;3.50;99.90;;;;;;5110288;28;20438;-67
2021/03/10 06:40:30;;;;;;;22.05;19.25;;;3.50;99.90;;;;;;5109446;28;20043;-67
2021/03/10 06:42:56;;;;;;;21.83;19.35;;;3.50;99.90;;;;;;5109098;28;20115;-67
2021/03/10 06:45:32;;;;;;;21.33;18.85;;;3.50;99.90;;;;;;5109829;28;20142;-67
2021/03/10 06:47:58;;;;;;;23.55;19.77;;;3.50;99.90;;;;;;5109678;28;20046;-67
2021/03/10 06:50:36;;;;;;;24.70;19.42;;;3.50;99.90;;;;;;5109429;28;20093;-67
2021/03/10 06:53:03;;;;;;;21.45;19.10;;;3.50;99.90;;;;;;5108601;28;20076;-67
2021/03/10 06:55:43;;;;;;;23.90;18.73;;;3.60;99.90;;;;;;5090366;28;20046;-67
2021/03/10 06:58:10;;;;;;;24.83;19.80;;;3.50;99.90;;;;;;5092921;28;20036;-67
2021/03/10 07:00:37;;;;;;;22.73;18.92;;;3.60;99.90;;;;;;5116420;28;20424;-67
2021/03/10 07:03:04;;;;;;;24.83;20.13;;;3.60;99.90;;;;;;5109125;28;20497;-67
2021/03/10 07:05:30;;;;;;;23.48;20.00;;;3.60;99.90;;;;;;5108848;28;20035;-67
2021/03/10 07:07:57;;;;;;;25.73;19.90;;;3.60;99.90;;;;;;5107640;28;20585;-67
2021/03/10 07:10:26;;;;;;;27.33;19.85;;;3.70;99.90;;;;;;5103395;28;20043;-67
2021/03/10 07:12:56;;;;;;;22.73;18.70;;;3.70;99.90;;;;;;5105202;28;20039;-67
2021/03/10 07:15:22;;;;;;;22.17;19.15;;;3.70;99.90;;;;;;5105916;28;20471;-67
2021/03/10 07:17:49;;;;;;;21.30;18.20;;;3.70;99.90;;;;;;5088445;28;20044;-67
2021/03/10 07:20:16;;;;;;;23.75;19.02;;;3.70;99.90;;;;;;5108702;28;20062;-67
2021/03/10 07:22:46;;;;;;;21.63;18.27;;;3.70;99.90;;;;;;5108844;28;20032;-67
2021/03/10 07:25:23;;;;;;;22.42;17.48;;;3.80;99.90;;;;;;5109871;28;20032;-67
2021/03/10 07:28:02;;;;;;;25.85;18.55;;;3.80;99.90;;;;;;5107543;28;20059;-67
2021/03/10 07:30:37;;;;;;;23.67;17.00;;;3.80;99.90;;;;;;5109853;28;20069;-67
2021/03/10 07:33:14;;;;;;;21.75;17.73;;;3.90;99.90;;;;;;5109392;28;20397;-67
2021/03/10 07:35:51;;;;;;;21.95;17.52;;;3.90;99.90;;;;;;5092283;28;20729;-67
2021/03/10 07:38:18;;;;;;;20.00;17.27;;;3.90;99.90;;;;;;5106810;28;20398;-67
2021/03/10 07:40:59;;;;;;;22.52;17.35;;;4.00;99.90;;;;;;5104521;28;20055;-67
2021/03/10 07:43:40;;;;;;;22.67;18.33;;;4.00;99.90;;;;;;5111413;28;20492;-67
2021/03/10 07:46:28;;;;;;;21.80;17.45;;;4.00;99.90;;;;;;5106579;28;20044;-67
2021/03/10 07:48:55;;;;;;;19.60;16.50;;;4.00;99.90;;;;;;5105081;27;20043;-67
2021/03/10 07:51:32;;;;;;;20.40;16.27;;;4.10;99.90;;;;;;5113442;27;20055;-67
2021/03/10 07:53:59;;;;;;;23.27;18.52;;;4.00;99.90;;;;;;5110045;27;20039;-67
2021/03/10 07:56:30;;;;;;;21.52;17.58;;;4.10;99.90;;;;;;5111927;27;20485;-67
2021/03/10 07:59:15;;;;;;;23.52;16.95;;;4.10;99.90;;;;;;5111667;27;20513;-67
2021/03/10 08:01:41;;;;;;;20.60;17.25;;;4.10;99.90;;;;;;5108312;28;20134;-67
2021/03/10 08:04:11;;;;;;;22.80;17.80;;;4.20;99.90;;;;;;5108924;27;20036;-67
2021/03/10 08:06:43;;;;;;;21.02;17.45;;;4.20;99.90;;;;;;5110550;28;20050;-67
2021/03/10 08:09:09;;;;;;;19.77;16.35;;;4.20;99.90;;;;;;5113607;27;20067;-67
2021/03/10 08:11:37;;;;;;;19.27;16.52;;;4.30;99.90;;;;;;5111952;28;20035;-67
2021/03/10 08:14:02;;;;;;;20.48;16.98;;;4.30;99.90;;;;;;5109550;27;20123;-67
2021/03/10 08:16:28;;;;;;;22.70;17.95;;;4.30;99.90;;;;;;5110341;28;20036;-67
2021/03/10 08:18:54;;;;;;;21.67;16.15;;;4.30;99.90;;;;;;5112981;28;20027;-67
2021/03/10 08:21:20;;;;;;;21.67;17.45;;;4.40;99.90;;;;;;5112957;27;20161;-67
2021/03/10 08:23:48;;;;;;;20.27;16.88;;;4.40;99.90;;;;;;5107687;28;20062;-67
2021/03/10 08:26:17;;;;;;;21.05;16.67;;;4.40;99.90;;;;;;5110425;27;20081;-67
2021/03/10 08:28:43;;;;;;;20.38;16.83;;;4.40;99.90;;;;;;5094291;28;20031;-67
2021/03/10 08:31:10;;;;;;;23.50;16.60;;;4.50;99.90;;;;;;5112953;27;20035;-67
2021/03/10 08:33:47;;;;;;;25.00;17.40;;;4.50;99.90;;;;;;5108050;28;20046;-67
2021/03/10 08:36:14;;;;;;;22.80;17.17;;;4.60;99.90;;;;;;5092660;28;20477;-67
2021/03/10 08:38:41;;;;;;;20.75;17.15;;;4.60;99.90;;;;;;5109766;28;20039;-67
2021/03/10 08:41:08;;;;;;;20.00;17.35;;;4.60;99.90;;;;;;5111084;28;20040;-67
2021/03/10 08:43:34;;;;;;;23.45;17.63;;;4.70;99.90;;;;;;5110671;28;20050;-67
2021/03/10 08:46:00;;;;;;;24.35;18.60;;;4.70;99.90;;;;;;5111792;28;20036;-67
2021/03/10 08:48:34;;;;;;;24.30;19.20;;;4.80;99.90;;;;;;5110906;28;20036;-67
2021/03/10 08:51:02;;;;;;;28.67;20.10;;;4.80;99.90;;;;;;5092278;28;20603;-67
2021/03/10 08:53:29;;;;;;;24.50;19.38;;;4.90;99.90;;;;;;5108858;28;20044;-67
2021/03/10 08:56:04;;;;;;;24.67;17.67;;;5.00;99.90;;;;;;5112348;28;20043;-67
2021/03/10 08:58:29;;;;;;;26.27;20.85;;;5.00;99.90;;;;;;5109794;28;20089;-67
2021/03/10 09:00:55;;;;;;;31.13;22.27;;;5.00;99.90;;;;;;5106446;28;20052;-67
2021/03/10 09:03:21;;;;;;;26.23;21.40;;;5.10;99.90;;;;;;5108282;28;20047;-67
2021/03/10 09:05:49;;;;;;;26.38;21.40;;;5.10;99.90;;;;;;5111390;28;20094;-67
2021/03/10 09:08:20;;;;;;;27.20;21.60;;;5.20;99.90;;;;;;5112958;28;20044;-67
2021/03/10 09:10:52;;;;;;;34.72;24.02;;;5.30;99.90;;;;;;5112030;28;20482;-67
2021/03/10 09:13:19;;;;;;;31.52;22.83;;;5.30;99.90;;;;;;5110248;28;20087;-67
2021/03/10 09:15:45;;;;;;;29.27;23.35;;;5.40;99.90;;;;;;5102134;28;20040;-67
2021/03/10 09:18:11;;;;;;;27.70;20.52;;;5.40;99.90;;;;;;5111475;28;20035;-67
2021/03/10 09:20:39;;;;;;;37.00;23.27;;;5.50;99.90;;;;;;5109055;28;20028;-67
2021/03/10 09:23:05;;;;;;;29.85;23.80;;;5.50;99.90;;;;;;5090810;28;20035;-67
2021/03/10 09:25:39;;;;;;;35.45;24.92;;;5.50;99.90;;;;;;5105715;28;20044;-67
2021/03/10 09:28:15;;;;;;;32.03;25.40;;;5.60;99.90;;;;;;5107856;28;20027;-67
2021/03/10 09:30:43;;;;;;;33.85;25.85;;;5.60;99.90;;;;;;5107451;28;20031;-67
2021/03/10 09:33:23;;;;;;;32.28;23.90;;;5.60;99.90;;;;;;5110693;28;20489;-67
2021/03/10 09:36:02;;;;;;;34.60;24.92;;;5.70;99.90;;;;;;5108118;28;20113;-67
2021/03/10 09:38:29;;;;;;;31.67;24.65;;;5.80;99.90;;;;;;5111191;28;20431;-67
2021/03/10 09:40:57;;;;;;;27.17;22.52;;;5.90;99.90;;;;;;5107003;28;20046;-67
2021/03/10 09:43:25;;;;;;;29.80;24.70;;;5.90;99.90;;;;;;5107744;28;20126;-67
2021/03/10 09:45:56;;;;;;;29.63;24.73;;;5.90;99.90;;;;;;5107766;28;20437;-67
2021/03/10 09:48:29;;;;;;;27.67;23.83;;;6.00;99.90;;;;;;5108117;28;20035;-67
2021/03/10 09:51:04;;;;;;;32.15;24.50;;;6.00;99.90;;;;;;5105186;28;20512;-67
2021/03/10 09:53:31;;;;;;;33.88;25.73;;;6.00;99.90;;;;;;5100713;28;20065;-67
2021/03/10 09:56:14;;;;;;;32.25;25.27;;;6.10;99.90;;;;;;5108138;28;20050;-67
2021/03/10 09:58:46;;;;;;;32.50;24.00;;;6.10;99.90;;;;;;5109008;28;20043;-67
2021/03/10 10:01:11;;;;;;;35.90;25.35;;;6.10;99.90;;;;;;5104176;28;20040;-67
2021/03/10 10:03:37;;;;;;;34.38;25.15;;;6.10;99.90;;;;;;5108530;28;20051;-67
2021/03/10 10:06:10;;;;;;;36.50;25.48;;;6.10;99.90;;;;;;5110125;28;20051;-67
2021/03/10 10:08:38;;;;;;;33.30;24.63;;;6.20;99.90;;;;;;5105444;28;20039;-67
2021/03/10 10:11:05;;;;;;;32.78;26.58;;;6.20;99.90;;;;;;5106417;28;20118;-67
2021/03/10 10:13:32;;;;;;;35.72;24.52;;;6.30;99.90;;;;;;5090403;28;20115;-67
2021/03/10 10:15:57;;;;;;;34.75;26.98;;;6.30;99.90;;;;;;5109767;28;20397;-67
2021/03/10 10:18:23;;;;;;;47.72;27.55;;;6.30;99.90;;;;;;5106425;28;20039;-67
2021/03/10 10:20:50;;;;;;;36.53;25.75;;;6.30;99.90;;;;;;5108520;28;20046;-67
2021/03/10 10:23:16;;;;;;;46.33;27.90;;;6.30;99.90;;;;;;5104378;28;20032;-68
2021/03/10 10:25:41;;;;;;;37.38;26.25;;;6.40;99.90;;;;;;5108780;28;20508;-67
2021/03/10 10:28:07;;;;;;;35.30;28.42;;;6.40;99.90;;;;;;5112492;27;20043;-67
2021/03/10 10:30:33;;;;;;;35.42;27.55;;;6.40;99.90;;;;;;5109651;28;20066;-67
2021/03/10 10:32:59;;;;;;;34.60;27.15;;;6.40;99.90;;;;;;5104334;28;20114;-67
2021/03/10 10:35:24;;;;;;;37.65;28.60;;;6.50;99.90;;;;;;5106458;28;20032;-67
2021/03/10 10:37:50;;;;;;;32.83;27.23;;;6.50;99.90;;;;;;5110146;28;20028;-67
2021/03/10 10:40:18;;;;;;;34.85;28.45;;;6.60;99.90;;;;;;5108492;28;20055;-67
2021/03/10 10:42:50;;;;;;;36.17;28.48;;;6.60;99.90;;;;;;5105483;28;20040;-68
2021/03/10 10:45:16;;;;;;;35.72;29.02;;;6.60;99.90;;;;;;5107150;28;20040;-67
2021/03/10 10:47:43;;;;;;;36.05;28.23;;;6.60;99.90;;;;;;5104941;28;20111;-68
2021/03/10 10:50:11;;;;;;;37.75;29.98;;;6.60;99.90;;;;;;5105862;28;20465;-68
2021/03/10 10:52:37;;;;;;;42.42;28.08;;;6.60;99.90;;;;;;5108788;28;20039;-67
2021/03/10 10:55:06;;;;;;;36.80;28.45;;;6.70;99.90;;;;;;5105074;28;20124;-67
2021/03/10 10:57:32;;;;;;;36.15;28.35;;;6.70;99.90;;;;;;5102542;28;20051;-67
2021/03/10 10:59:58;;;;;;;34.33;27.05;;;6.80;99.90;;;;;;5101921;28;20040;-67
2021/03/10 11:02:23;;;;;;;37.55;29.30;;;6.80;99.90;;;;;;5109147;28;20057;-68
2021/03/10 11:04:49;;;;;;;34.97;28.98;;;6.80;99.90;;;;;;5114616;28;20032;-67
2021/03/10 11:07:15;;;;;;;34.05;27.80;;;6.80;99.90;;;;;;5113184;28;20043;-67
2021/03/10 11:09:41;;;;;;;37.42;26.65;;;6.90;99.90;;;;;;5112316;28;20163;-67
2021/03/10 11:12:09;;;;;;;32.88;27.35;;;6.80;99.70;;;;;;5114185;28;20036;-68
2021/03/10 11:14:36;;;;;;;34.55;27.45;;;6.90;99.90;;;;;;5113476;28;20047;-68
2021/03/10 11:17:02;;;;;;;34.72;27.70;;;6.90;99.90;;;;;;5109493;28;20386;-68
2021/03/10 11:19:27;;;;;;;33.08;27.50;;;7.00;99.60;;;;;;5112430;28;20052;-68
2021/03/10 11:21:53;;;;;;;34.20;26.17;;;7.00;99.80;;;;;;5104796;28;20104;-68
2021/03/10 11:24:19;;;;;;;32.38;27.30;;;7.00;99.50;;;;;;5108976;28;20027;-67
2021/03/10 11:26:44;;;;;;;37.00;26.88;;;7.00;99.70;;;;;;5108858;28;20056;-67
2021/03/10 11:29:11;;;;;;;33.60;27.10;;;7.00;99.40;;;;;;5109861;28;20508;-68
2021/03/10 11:31:37;;;;;;;35.78;27.88;;;7.00;99.50;;;;;;5109188;28;20046;-68
2021/03/10 11:34:03;;;;;;;35.08;27.98;;;7.10;99.70;;;;;;5101764;28;20486;-67
2021/03/10 11:36:29;;;;;;;32.95;25.85;;;7.10;99.60;;;;;;5104041;28;20069;-67
2021/03/10 11:38:55;;;;;;;35.25;27.42;;;7.10;99.00;;;;;;5103049;28;20073;-67
2021/03/10 11:41:20;;;;;;;33.50;27.40;;;7.10;99.30;;;;;;5103551;28;20032;-68
2021/03/10 11:43:47;;;;;;;35.35;26.55;;;7.10;99.40;;;;;;5107792;28;20367;-68
2021/03/10 11:46:13;;;;;;;33.55;26.85;;;7.20;99.30;;;;;;5109662;28;20106;-68
2021/03/10 11:48:38;;;;;;;35.45;27.05;;;7.30;99.00;;;;;;5111263;28;20060;-68
2021/03/10 11:51:04;;;;;;;29.90;25.08;;;7.30;98.90;;;;;;5105114;28;20129;-68
2021/03/10 11:53:30;;;;;;;35.38;26.08;;;7.30;98.90;;;;;;5111562;27;20043;-68
2021/03/10 11:55:57;;;;;;;35.85;27.42;;;7.30;98.80;;;;;;5106044;28;20120;-68
2021/03/10 11:58:26;;;;;;;38.92;26.52;;;7.40;98.70;;;;;;5106857;27;20051;-68
2021/03/10 12:00:55;;;;;;;29.67;25.88;;;7.40;98.70;;;;;;5108483;28;20052;-68
2021/03/10 12:03:21;;;;;;;33.30;25.60;;;7.40;98.50;;;;;;5111368;28;20067;-68
2021/03/10 12:05:47;;;;;;;34.95;26.13;;;7.40;98.60;;;;;;5107861;28;20071;-68
2021/03/10 12:08:13;;;;;;;33.97;26.77;;;7.40;98.70;;;;;;5090096;28;20032;-68
2021/03/10 12:10:40;;;;;;;33.38;23.80;;;7.40;98.50;;;;;;5108506;28;20031;-68
2021/03/10 12:13:10;;;;;;;33.83;25.15;;;7.40;98.30;;;;;;5108391;28;20035;-68
2021/03/10 12:15:37;;;;;;;27.52;24.05;;;7.50;98.10;;;;;;5111543;28;20040;-68
2021/03/10 12:18:03;;;;;;;26.63;23.67;;;7.50;98.20;;;;;;5109749;28;20040;-68
2021/03/10 12:20:28;;;;;;;30.17;25.45;;;7.50;98.30;;;;;;5107194;28;20093;-68
2021/03/10 12:22:54;;;;;;;31.33;25.35;;;7.50;98.00;;;;;;5110062;28;20043;-68
2021/03/10 12:25:20;;;;;;;29.35;24.35;;;7.50;98.10;;;;;;5108620;28;20652;-68
2021/03/10 12:27:46;;;;;;;29.00;24.50;;;7.50;98.20;;;;;;5106251;28;20536;-68
2021/03/10 12:30:12;;;;;;;28.85;24.33;;;7.60;98.40;;;;;;5105349;28;20814;-68
2021/03/10 12:32:38;;;;;;;31.65;25.08;;;7.60;97.90;;;;;;5107702;28;20460;-68
2021/03/10 12:35:05;;;;;;;28.77;23.95;;;7.60;97.80;;;;;;5107314;28;20136;-68
2021/03/10 12:37:31;;;;;;;33.38;26.27;;;7.60;98.00;;;;;;5111789;28;20044;-68
2021/03/10 12:39:57;;;;;;;30.08;24.20;;;7.60;97.70;;;;;;5107143;28;20047;-68